Time;durP1;ratioP1;P1;durP2;ratioP2;P2;SDS_P1;SDS_P2;PMS_P1;PMS_P2;Temp;Humidity;BMP_temperature;BMP_pressure;BME280_temperature;BME280_humidity;BME280_pressure;Samples;Min_cycle;Max_cycle;Signal;HPM_P1;HPM_P2
2022/12/31 00:01:03;;;;;;;30.17;5.40;;;;;;;;;;5080314;28;20104;-67
2022/12/31 00:03:30;;;;;;;25.33;5.40;;;;;;;;;;5097075;28;20039;-67
2022/12/31 00:05:56;;;;;;;27.20;5.90;;;;;;;;;;5094480;28;20054;-67
2022/12/31 00:08:22;;;;;;;32.83;5.10;;;;;;;;;;5080074;28;20040;-67
2022/12/31 00:10:48;;;;;;;30.20;5.30;;;;;;;;;;5099639;28;20123;-67
2022/12/31 00:13:15;;;;;;;27.27;5.10;;;;;;;;;;5081990;28;20039;-67
2022/12/31 00:15:42;;;;;;;37.80;6.35;;;;;;;;;;5100132;28;20048;-68
2022/12/31 00:18:09;;;;;;;27.38;4.43;;;;;;;;;;5096877;28;20432;-67
2022/12/31 00:20:38;;;;;;;31.02;6.13;;;;;;;;;;5080965;28;20116;-68
2022/12/31 00:23:04;;;;;;;33.95;5.60;;;;;;;;;;5099630;28;20047;-67
2022/12/31 00:25:30;;;;;;;27.40;5.13;;;;;;;;;;5079613;28;20411;-67
2022/12/31 00:27:57;;;;;;;37.25;5.80;;;;;;;;;;5097164;28;20036;-67
2022/12/31 00:30:23;;;;;;;33.80;6.20;;;;;;;;;;5097860;28;20110;-67
2022/12/31 00:32:49;;;;;;;44.33;6.40;;;;;;;;;;5096352;28;20043;-67
2022/12/31 00:35:15;;;;;;;35.72;5.30;;;;;;;;;;5081362;28;20049;-67
2022/12/31 00:37:41;;;;;;;41.83;6.40;;;;;;;;;;5098605;28;20067;-67
2022/12/31 00:40:08;;;;;;;26.42;5.35;;;;;;;;;;5096060;28;20101;-68
2022/12/31 00:42:34;;;;;;;43.90;5.60;;;;;;;;;;5096171;28;20036;-68
2022/12/31 00:45:00;;;;;;;39.47;6.22;;;;;;;;;;5098258;28;20073;-68
2022/12/31 00:47:26;;;;;;;35.25;5.10;;;;;;;;;;5096639;28;20035;-68
2022/12/31 00:49:52;;;;;;;39.00;5.82;;;;;;;;;;5080722;28;20056;-68
2022/12/31 00:52:19;;;;;;;27.27;4.82;;;;;;;;;;5094652;28;20086;-68
2022/12/31 00:54:45;;;;;;;34.92;4.85;;;;;;;;;;5080155;28;20048;-68
2022/12/31 00:57:11;;;;;;;45.55;7.57;;;;;;;;;;5096427;28;20394;-68
2022/12/31 00:59:37;;;;;;;44.28;6.55;;;;;;;;;;5097138;28;20063;-68
2022/12/31 01:02:03;;;;;;;34.38;6.15;;;;;;;;;;5096605;28;20054;-68
2022/12/31 01:04:29;;;;;;;43.28;6.53;;;;;;;;;;5094507;28;20061;-68
2022/12/31 01:06:56;;;;;;;33.00;5.20;;;;;;;;;;5096524;28;20444;-67
2022/12/31 01:09:22;;;;;;;32.58;4.68;;;;;;;;;;5076958;28;20420;-68
2022/12/31 01:11:50;;;;;;;41.85;5.50;;;;;;;;;;5096166;28;20132;-68
2022/12/31 01:14:17;;;;;;;31.52;5.60;;;;;;;;;;5078905;28;20058;-68
2022/12/31 01:16:46;;;;;;;28.13;5.57;;;;;;;;;;5077440;28;20107;-68
2022/12/31 01:19:15;;;;;;;38.95;5.07;;;;;;;;;;5080036;28;20047;-68
2022/12/31 01:21:42;;;;;;;32.40;5.38;;;;;;;;;;5074021;28;20039;-68
2022/12/31 01:24:08;;;;;;;38.28;6.00;;;;;;;;;;5077242;28;20398;-68
2022/12/31 01:26:35;;;;;;;31.85;5.93;;;;;;;;;;5093106;27;20121;-68
2022/12/31 01:29:01;;;;;;;36.97;6.30;;;;;;;;;;5093459;28;20074;-67
2022/12/31 01:31:27;;;;;;;27.85;4.57;;;;;;;;;;5095446;28;20050;-68
2022/12/31 01:33:53;;;;;;;38.88;5.55;;;;;;;;;;5094361;28;20051;-68
2022/12/31 01:36:22;;;;;;;31.85;6.82;;;;;;;;;;5095711;28;20084;-67
2022/12/31 01:38:49;;;;;;;23.23;4.32;;;;;;;;;;5081693;28;20141;-67
2022/12/31 01:41:16;;;;;;;28.90;4.93;;;;;;;;;;5078034;28;20656;-68
2022/12/31 01:43:47;;;;;;;34.08;6.25;;;;;;;;;;5076954;28;20063;-68
2022/12/31 01:46:18;;;;;;;29.02;5.07;;;;;;;;;;5076258;28;20043;-68
2022/12/31 01:48:47;;;;;;;30.35;5.88;;;;;;;;;;5095092;28;20192;-67
2022/12/31 01:51:13;;;;;;;30.90;4.82;;;;;;;;;;5078099;28;20442;-68
2022/12/31 01:53:39;;;;;;;35.25;5.55;;;;;;;;;;5093812;28;20077;-68
2022/12/31 01:56:06;;;;;;;33.30;5.05;;;;;;;;;;5095544;28;20058;-68
2022/12/31 01:58:38;;;;;;;26.05;5.15;;;;;;;;;;5077847;28;20192;-68
2022/12/31 02:01:04;;;;;;;24.00;5.03;;;;;;;;;;5073890;28;20070;-68
2022/12/31 02:03:31;;;;;;;26.20;5.25;;;;;;;;;;5097602;28;21989;-68
2022/12/31 02:06:09;;;;;;;35.17;4.65;;;;;;;;;;5097164;28;20448;-68
2022/12/31 02:08:36;;;;;;;40.50;7.15;;;;;;;;;;5076234;28;20051;-68
2022/12/31 02:11:02;;;;;;;26.60;5.03;;;;;;;;;;5079994;28;20069;-68
2022/12/31 02:13:28;;;;;;;32.80;5.18;;;;;;;;;;5097317;28;20064;-68
2022/12/31 02:16:01;;;;;;;25.25;4.93;;;;;;;;;;5079688;28;20554;-68
2022/12/31 02:18:50;;;;;;;36.45;6.68;;;;;;;;;;5073018;28;20047;-68
2022/12/31 02:21:26;;;;;;;36.40;7.07;;;;;;;;;;5096168;28;20364;-68
2022/12/31 02:24:03;;;;;;;24.10;5.13;;;;;;;;;;5094852;28;20047;-68
2022/12/31 02:26:31;;;;;;;29.70;6.55;;;;;;;;;;5091530;28;20043;-68
2022/12/31 02:29:14;;;;;;;26.48;5.80;;;;;;;;;;5099544;28;20134;-68
2022/12/31 02:31:46;;;;;;;28.25;6.22;;;;;;;;;;5101888;28;20113;-68
2022/12/31 02:34:26;;;;;;;20.35;6.22;;;;;;;;;;5098126;28;20424;-68
2022/12/31 02:36:53;;;;;;;29.63;8.50;;;;;;;;;;5083568;28;20056;-68
2022/12/31 02:39:19;;;;;;;28.25;8.20;;;;;;;;;;5099930;28;20051;-68
2022/12/31 02:41:49;;;;;;;31.80;7.65;;;;;;;;;;5082772;28;20044;-68
2022/12/31 02:44:23;;;;;;;26.23;6.82;;;;;;;;;;5100746;28;20175;-68
2022/12/31 02:47:10;;;;;;;25.10;6.10;;;;;;;;;;5082011;28;20051;-68
2022/12/31 02:49:55;;;;;;;24.35;5.32;;;;;;;;;;5100751;28;20040;-68
2022/12/31 02:52:22;;;;;;;18.70;5.25;;;;;;;;;;5080205;28;20100;-68
2022/12/31 02:55:02;;;;;;;28.73;5.25;;;;;;;;;;5083176;28;20454;-68
2022/12/31 02:57:29;;;;;;;20.73;5.65;;;;;;;;;;5084255;28;20100;-68
2022/12/31 03:02:44;;;;;;;25.17;5.13;;;;;;;;;;5095103;28;20039;-68
2022/12/31 03:05:13;;;;;;;18.20;4.55;;;;;;;;;;5101016;28;20086;-68
2022/12/31 03:07:40;;;;;;;26.15;5.40;;;;;;;;;;5080599;28;20040;-68
2022/12/31 03:10:06;;;;;;;23.83;4.18;;;;;;;;;;5085668;28;20915;-68
2022/12/31 03:12:46;;;;;;;19.30;4.00;;;;;;;;;;5102189;28;20047;-68
2022/12/31 03:15:18;;;;;;;16.42;4.22;;;;;;;;;;5099120;28;20051;-68
2022/12/31 03:17:50;;;;;;;19.73;4.55;;;;;;;;;;5085075;28;20040;-68
2022/12/31 03:23:03;;;;;;;22.92;4.70;;;;;;;;;;5103013;28;20138;-68
2022/12/31 03:25:35;;;;;;;24.33;3.67;;;;;;;;;;5100193;28;20079;-68
2022/12/31 03:28:03;;;;;;;22.92;3.70;;;;;;;;;;5097387;28;20039;-68
2022/12/31 03:30:30;;;;;;;21.48;4.30;;;;;;;;;;5085367;28;20414;-68
2022/12/31 03:32:57;;;;;;;20.58;3.75;;;;;;;;;;5082698;28;20039;-68
2022/12/31 03:35:24;;;;;;;18.95;3.97;;;;;;;;;;5100798;28;20100;-68
2022/12/31 03:37:51;;;;;;;22.10;3.60;;;;;;;;;;5100656;28;20042;-68
2022/12/31 03:40:18;;;;;;;22.90;4.18;;;;;;;;;;5099668;28;20055;-69
2022/12/31 03:42:44;;;;;;;21.60;3.78;;;;;;;;;;5083324;28;20126;-68
2022/12/31 03:45:11;;;;;;;26.88;4.25;;;;;;;;;;5100761;28;20052;-68
2022/12/31 03:47:37;;;;;;;16.55;3.58;;;;;;;;;;5098752;28;20051;-68
2022/12/31 03:50:05;;;;;;;17.30;3.40;;;;;;;;;;5099159;28;20048;-68
2022/12/31 03:52:31;;;;;;;18.30;3.25;;;;;;;;;;5101067;28;20036;-68
2022/12/31 03:54:58;;;;;;;19.42;3.58;;;;;;;;;;5081536;28;20090;-68
2022/12/31 03:57:24;;;;;;;18.90;2.92;;;;;;;;;;5084379;28;20048;-68
2022/12/31 03:59:50;;;;;;;17.42;3.00;;;;;;;;;;5101605;28;20123;-68
2022/12/31 04:02:16;;;;;;;20.88;4.25;;;;;;;;;;5081438;28;20580;-68
2022/12/31 04:04:42;;;;;;;16.70;3.67;;;;;;;;;;5081591;28;20083;-68
2022/12/31 04:07:09;;;;;;;17.80;3.25;;;;;;;;;;5100050;28;20430;-68
2022/12/31 04:09:35;;;;;;;18.73;3.40;;;;;;;;;;5101931;28;20452;-68
2022/12/31 04:12:01;;;;;;;21.73;2.92;;;;;;;;;;5083910;28;20048;-68
2022/12/31 04:14:27;;;;;;;19.55;3.60;;;;;;;;;;5081686;28;20066;-68
2022/12/31 04:16:53;;;;;;;14.85;3.15;;;;;;;;;;5099845;28;20340;-68
2022/12/31 04:19:19;;;;;;;18.17;2.53;;;;;;;;;;5101775;28;20462;-68
2022/12/31 04:21:46;;;;;;;19.30;2.95;;;;;;;;;;5099643;28;20054;-68
2022/12/31 04:24:12;;;;;;;17.70;3.13;;;;;;;;;;5097324;28;20036;-68
2022/12/31 04:26:38;;;;;;;14.18;2.50;;;;;;;;;;5099797;28;20039;-68
2022/12/31 04:29:04;;;;;;;10.90;2.25;;;;;;;;;;5096483;28;20133;-68
2022/12/31 04:31:30;;;;;;;11.57;2.97;;;;;;;;;;5081387;28;20094;-68
2022/12/31 04:33:56;;;;;;;15.15;2.95;;;;;;;;;;5100746;28;20054;-68
2022/12/31 04:36:23;;;;;;;14.20;2.35;;;;;;;;;;5099777;28;20051;-68
2022/12/31 04:38:49;;;;;;;15.75;3.30;;;;;;;;;;5101883;28;20168;-68
2022/12/31 04:41:16;;;;;;;17.63;3.63;;;;;;;;;;5082192;28;20123;-68
2022/12/31 04:43:43;;;;;;;12.80;2.70;;;;;;;;;;5079860;28;20499;-68
2022/12/31 04:46:09;;;;;;;13.15;2.70;;;;;;;;;;5081277;28;20176;-68
2022/12/31 04:48:36;;;;;;;14.77;3.25;;;;;;;;;;5100500;28;20104;-69
2022/12/31 04:51:02;;;;;;;19.88;3.20;;;;;;;;;;5097537;28;20570;-69
2022/12/31 04:53:28;;;;;;;16.67;3.03;;;;;;;;;;5081517;28;20059;-69
2022/12/31 04:55:54;;;;;;;20.88;4.07;;;;;;;;;;5081705;28;20070;-69
2022/12/31 04:58:21;;;;;;;20.40;4.05;;;;;;;;;;5080831;28;20929;-69
2022/12/31 05:00:49;;;;;;;24.15;5.05;;;;;;;;;;5100046;28;20100;-69
2022/12/31 05:03:15;;;;;;;18.40;4.38;;;;;;;;;;5097735;28;20032;-69
2022/12/31 05:05:42;;;;;;;16.40;3.88;;;;;;;;;;5100719;28;20479;-69
2022/12/31 05:08:09;;;;;;;19.13;4.10;;;;;;;;;;5100324;28;20105;-69
2022/12/31 05:10:35;;;;;;;17.38;3.63;;;;;;;;;;5100130;28;20051;-69
2022/12/31 05:13:01;;;;;;;22.25;4.00;;;;;;;;;;5099625;28;20076;-69
2022/12/31 05:15:27;;;;;;;23.92;4.32;;;;;;;;;;5079209;28;20056;-69
2022/12/31 05:17:54;;;;;;;21.05;3.40;;;;;;;;;;5077536;28;20126;-69
2022/12/31 05:20:20;;;;;;;21.75;4.00;;;;;;;;;;5080243;28;20395;-69
2022/12/31 05:22:46;;;;;;;16.52;3.65;;;;;;;;;;5097084;28;20418;-69
2022/12/31 05:25:12;;;;;;;20.95;4.68;;;;;;;;;;5076853;28;20444;-69
2022/12/31 05:27:38;;;;;;;19.40;4.43;;;;;;;;;;5097443;28;20040;-69
2022/12/31 05:30:05;;;;;;;23.08;4.82;;;;;;;;;;5079225;28;20403;-69
2022/12/31 05:32:31;;;;;;;23.63;5.30;;;;;;;;;;5096644;28;21345;-69
2022/12/31 05:34:58;;;;;;;20.35;5.45;;;;;;;;;;5082531;28;20054;-69
2022/12/31 05:37:25;;;;;;;26.85;7.05;;;;;;;;;;5098358;28;20039;-69
2022/12/31 05:39:51;;;;;;;22.17;6.15;;;;;;;;;;5097484;28;20097;-69
2022/12/31 05:42:17;;;;;;;21.88;6.60;;;;;;;;;;5100726;28;20141;-69
2022/12/31 05:44:44;;;;;;;24.23;7.28;;;;;;;;;;5061301;28;20212;-69
2022/12/31 05:47:10;;;;;;;37.45;8.43;;;;;;;;;;5059956;28;20062;-69
2022/12/31 05:49:36;;;;;;;25.23;8.63;;;;;;;;;;5081848;28;20077;-69
2022/12/31 05:52:02;;;;;;;21.70;7.15;;;;;;;;;;5062758;28;20078;-69
2022/12/31 05:54:29;;;;;;;21.92;6.53;;;;;;;;;;5077666;28;20051;-68
2022/12/31 05:56:55;;;;;;;11.85;5.65;;;;;;;;;;5076725;28;20063;-69
2022/12/31 05:59:21;;;;;;;17.02;4.32;;;;;;;;;;5059832;28;20043;-69
2022/12/31 06:01:47;;;;;;;15.98;5.25;;;;;;;;;;5079843;28;20143;-69
2022/12/31 06:04:13;;;;;;;20.30;6.60;;;;;;;;;;5058690;28;21597;-69
2022/12/31 06:06:40;;;;;;;23.33;7.47;;;;;;;;;;5079040;28;20395;-69
2022/12/31 06:09:06;;;;;;;17.60;8.75;;;;;;;;;;5059075;28;20036;-69
2022/12/31 06:11:32;;;;;;;25.55;10.10;;;;;;;;;;5061968;28;20044;-69
2022/12/31 06:13:58;;;;;;;34.58;11.43;;;;;;;;;;5060363;28;20120;-69
2022/12/31 06:16:25;;;;;;;29.25;11.82;;;;;;;;;;5060305;28;20104;-69
2022/12/31 06:18:51;;;;;;;35.72;12.45;;;;;;;;;;5077934;28;20495;-69
2022/12/31 06:21:18;;;;;;;31.80;11.73;;;;;;;;;;5076668;28;20036;-69
2022/12/31 06:23:45;;;;;;;27.65;11.73;;;;;;;;;;5078596;28;20126;-68
2022/12/31 06:26:11;;;;;;;29.77;11.95;;;;;;;;;;5079890;28;20093;-68
2022/12/31 06:28:37;;;;;;;25.92;11.43;;;;;;;;;;5072126;28;20039;-68
2022/12/31 06:31:05;;;;;;;25.27;10.77;;;;;;;;;;5057591;28;20044;-68
2022/12/31 06:33:31;;;;;;;23.95;11.38;;;;;;;;;;5076568;28;20024;-69
2022/12/31 06:35:58;;;;;;;22.25;10.93;;;;;;;;;;5042749;28;20044;-68
2022/12/31 06:38:24;;;;;;;23.23;11.13;;;;;;;;;;5081093;28;20043;-68
2022/12/31 06:40:51;;;;;;;20.58;11.18;;;;;;;;;;5079302;28;20427;-68
2022/12/31 06:43:17;;;;;;;18.75;10.00;;;;;;;;;;5085300;28;20082;-68
2022/12/31 06:45:44;;;;;;;21.40;10.45;;;;;;;;;;5076180;28;20108;-68
2022/12/31 06:48:10;;;;;;;25.45;10.82;;;;;;;;;;5100992;28;20120;-68
2022/12/31 06:50:36;;;;;;;25.00;10.13;;;;;;;;;;5098497;28;20052;-68
2022/12/31 06:53:03;;;;;;;23.55;9.85;;;;;;;;;;5099904;28;20035;-68
2022/12/31 06:55:29;;;;;;;24.60;9.13;;;;;;;;;;5097177;28;20056;-68
2022/12/31 06:57:56;;;;;;;18.77;7.80;;;;;;;;;;5097313;28;20044;-68
2022/12/31 07:00:22;;;;;;;17.73;8.43;;;;;;;;;;5097158;28;20039;-68
2022/12/31 07:02:53;;;;;;;19.88;8.85;;;;;;;;;;5096773;28;20079;-68
2022/12/31 07:05:23;;;;;;;20.98;8.60;;;;;;;;;;5078726;28;20052;-68
2022/12/31 07:07:55;;;;;;;15.05;7.78;;;;;;;;;;5099733;28;20043;-68
2022/12/31 07:10:28;;;;;;;22.42;8.35;;;;;;;;;;5099971;28;20387;-68
2022/12/31 07:13:01;;;;;;;17.50;9.13;;;;;;;;;;5077994;28;20911;-68
2022/12/31 07:15:51;;;;;;;22.30;11.38;;;;;;;;;;5103392;28;20110;-68
2022/12/31 07:18:23;;;;;;;20.85;12.20;;;;;;;;;;5082600;28;20056;-68
2022/12/31 07:20:49;;;;;;;22.75;11.55;;;;;;;;;;5084188;28;20063;-68
2022/12/31 07:23:16;;;;;;;29.88;13.98;;;;;;;;;;5101948;28;20050;-68
2022/12/31 07:25:48;;;;;;;26.58;13.27;;;;;;;;;;5101106;28;20040;-68
2022/12/31 07:28:21;;;;;;;24.52;12.60;;;;;;;;;;5105437;28;20070;-68
2022/12/31 07:30:55;;;;;;;25.63;12.73;;;;;;;;;;5105985;28;20052;-68
2022/12/31 07:33:21;;;;;;;22.02;12.48;;;;;;;;;;5105401;28;21808;-68
2022/12/31 07:35:56;;;;;;;22.77;12.40;;;;;;;;;;5104593;28;20123;-68
2022/12/31 07:38:34;;;;;;;21.73;11.52;;;;;;;;;;5105313;28;20042;-67
2022/12/31 07:41:01;;;;;;;22.65;10.38;;;;;;;;;;5106218;28;20050;-66
2022/12/31 07:43:39;;;;;;;21.25;10.57;;;;;;;;;;5083982;28;20121;-66
2022/12/31 07:46:09;;;;;;;23.40;10.85;;;;;;;;;;5081492;28;20058;-66
2022/12/31 07:48:35;;;;;;;22.13;11.05;;;;;;;;;;5084798;28;20058;-67
2022/12/31 07:51:01;;;;;;;22.42;11.02;;;;;;;;;;5083735;28;20054;-66
2022/12/31 07:53:28;;;;;;;21.95;10.95;;;;;;;;;;5085433;28;20480;-66
2022/12/31 07:55:56;;;;;;;25.80;11.70;;;;;;;;;;5084992;28;20093;-68
2022/12/31 07:58:25;;;;;;;26.95;12.48;;;;;;;;;;5068541;28;20032;-66
2022/12/31 08:00:52;;;;;;;21.95;12.65;;;;;;;;;;5084771;28;20040;-66
2022/12/31 08:03:18;;;;;;;24.83;12.57;;;;;;;;;;5089815;28;20063;-66
2022/12/31 08:05:54;;;;;;;17.75;10.52;;;;;;;;;;5084769;28;20098;-67
2022/12/31 08:08:24;;;;;;;18.25;11.00;;;;;;;;;;5083997;28;20047;-67
2022/12/31 08:11:07;;;;;;;15.52;9.82;;;;;;;;;;5083099;28;20495;-66
2022/12/31 08:13:33;;;;;;;16.92;10.55;;;;;;;;;;5083589;28;20438;-67
2022/12/31 08:15:59;;;;;;;19.25;11.10;;;;;;;;;;5087975;28;20044;-67
2022/12/31 08:18:26;;;;;;;20.60;12.18;;;;;;;;;;5086124;28;20136;-67
2022/12/31 08:21:05;;;;;;;21.55;13.18;;;;;;;;;;5085010;28;20043;-67
2022/12/31 08:23:36;;;;;;;19.52;13.38;;;;;;;;;;5085071;28;20044;-67
2022/12/31 08:26:10;;;;;;;23.02;14.43;;;;;;;;;;5065540;28;20395;-67
2022/12/31 08:28:46;;;;;;;20.58;14.20;;;;;;;;;;5078971;28;20047;-66
2022/12/31 08:31:16;;;;;;;18.33;12.82;;;;;;;;;;5085836;28;20047;-67
2022/12/31 08:33:48;;;;;;;20.88;13.82;;;;;;;;;;5084970;28;20043;-67
2022/12/31 08:36:15;;;;;;;18.40;12.63;;;;;;;;;;5083582;28;20036;-67
2022/12/31 08:38:50;;;;;;;17.10;11.00;;;;;;;;;;5083733;28;20241;-67
2022/12/31 08:41:22;;;;;;;14.05;9.60;;;;;;;;;;5087092;28;20121;-66
2022/12/31 08:43:57;;;;;;;15.05;10.27;;;;;;;;;;5070501;28;20044;-65
2022/12/31 08:46:30;;;;;;;14.30;10.18;;;;;;;;;;5090317;28;20200;-67
2022/12/31 08:48:57;;;;;;;14.70;10.55;;;;;;;;;;5091975;28;20040;-67
2022/12/31 08:51:25;;;;;;;20.25;13.45;;;;;;;;;;5092804;28;20429;-67
2022/12/31 08:53:52;;;;;;;18.23;11.50;;;;;;;;;;5092611;28;20169;-67
2022/12/31 08:56:21;;;;;;;17.27;11.40;;;;;;;;;;5091661;28;20040;-67
2022/12/31 08:58:57;;;;;;;19.05;10.88;;;;;;;;;;5092038;28;20054;-67
2022/12/31 09:01:26;;;;;;;17.08;10.13;;;;;;;;;;5090852;28;20051;-67
2022/12/31 09:04:05;;;;;;;18.50;10.18;;;;;;;;;;5089750;28;20051;-67
2022/12/31 09:06:33;;;;;;;20.15;10.90;;;;;;;;;;5088672;28;20041;-65
2022/12/31 09:08:59;;;;;;;11.85;7.00;;;;;;;;;;5092056;28;20399;-75
2022/12/31 09:11:31;;;;;;;11.52;7.13;;;;;;;;;;5090026;28;20068;-66
2022/12/31 09:14:04;;;;;;;11.90;6.93;;;;;;;;;;5082514;28;20119;-64
2022/12/31 09:16:48;;;;;;;12.32;6.35;;;;;;;;;;5090061;28;20452;-65
2022/12/31 09:19:14;;;;;;;;;;;;;;;;;;5089922;28;20036;-66
2022/12/31 09:21:43;;;;;;;13.48;6.78;;;;;;;;;;5086366;28;19931;-64
2022/12/31 09:24:11;;;;;;;12.60;5.82;;;;;;;;;;5086266;28;20101;-65
2022/12/31 09:26:48;;;;;;;11.30;5.78;;;;;;;;;;5090094;28;20072;-65
2022/12/31 09:29:35;;;;;;;12.88;5.68;;;;;;;;;;5077641;28;20043;-65
2022/12/31 09:32:08;;;;;;;13.40;5.45;;;;;;;;;;5078391;28;20491;-66
2022/12/31 09:34:36;;;;;;;11.93;5.07;;;;;;;;;;5084461;28;20043;-65
2022/12/31 09:37:04;;;;;;;14.52;5.25;;;;;;;;;;5088622;28;20064;-65
2022/12/31 09:39:37;;;;;;;16.67;5.15;;;;;;;;;;5085211;28;20047;-65
2022/12/31 09:42:16;;;;;;;12.85;5.18;;;;;;;;;;5079793;28;20044;-65
2022/12/31 09:44:57;;;;;;;9.80;4.70;;;;;;;;;;5105402;28;20113;-65
2022/12/31 09:47:41;;;;;;;12.02;4.15;;;;;;;;;;5102554;28;20078;-66
2022/12/31 09:50:26;;;;;;;8.98;3.45;;;;;;;;;;5085860;28;20122;-66
2022/12/31 09:53:01;;;;;;;10.60;3.45;;;;;;;;;;5102794;28;20423;-65
2022/12/31 09:55:31;;;;;;;11.70;3.47;;;;;;;;;;5085882;28;22102;-65
2022/12/31 09:57:58;;;;;;;8.52;2.72;;;;;;;;;;5103507;28;21276;-65
2022/12/31 10:00:32;;;;;;;9.38;3.15;;;;;;;;;;5103517;28;20054;-65
2022/12/31 10:03:08;;;;;;;16.13;3.03;;;;;;;;;;5105367;28;20047;-65
2022/12/31 10:05:42;;;;;;;12.23;2.28;;;;;;;;;;5104789;28;20047;-65
2022/12/31 10:08:11;;;;;;;12.38;2.55;;;;;;;;;;5102274;28;20042;-65
2022/12/31 10:10:41;;;;;;;7.78;1.33;;;;;;;;;;5106664;28;21582;-65
2022/12/31 10:13:21;;;;;;;10.27;2.85;;;;;;;;;;5104038;28;20493;-76
2022/12/31 10:15:47;;;;;;;13.88;2.13;;;;;;;;;;5087524;28;20050;-65
2022/12/31 10:18:22;;;;;;;9.80;2.25;;;;;;;;;;5102295;28;20054;-66
2022/12/31 10:21:04;;;;;;;17.30;2.88;;;;;;;;;;5102969;28;20036;-67
2022/12/31 10:23:43;;;;;;;14.20;2.53;;;;;;;;;;5088035;28;20076;-65
2022/12/31 10:26:21;;;;;;;18.20;2.60;;;;;;;;;;5086299;28;20047;-64
2022/12/31 10:28:54;;;;;;;21.30;3.10;;;;;;;;;;5104913;28;20446;-64
2022/12/31 10:31:34;;;;;;;16.50;2.55;;;;;;;;;;5105241;28;20131;-63
2022/12/31 10:34:15;;;;;;;15.18;2.78;;;;;;;;;;5106222;28;20049;-63
2022/12/31 10:36:41;;;;;;;13.25;2.90;;;;;;;;;;5106573;28;20044;-63
2022/12/31 10:39:18;;;;;;;17.73;3.03;;;;;;;;;;5107668;28;20044;-63
2022/12/31 10:42:14;;;;;;;22.40;3.20;;;;;;;;;;5105870;28;20367;-64
2022/12/31 10:45:04;;;;;;;24.55;3.88;;;;;;;;;;5103832;28;20559;-72
2022/12/31 10:47:46;;;;;;;19.70;4.03;;;;;;;;;;5100238;28;20043;-64
2022/12/31 10:50:19;;;;;;;22.40;4.22;;;;;;;;;;5106715;28;20043;-64
2022/12/31 10:53:09;;;;;;;19.90;4.05;;;;;;;;;;5105042;28;20623;-64
2022/12/31 10:55:37;;;;;;;21.55;3.25;;;;;;;;;;5111729;28;20483;-70
2022/12/31 10:58:23;;;;;;;12.90;2.30;;;;;;;;;;5112091;28;20165;-69
2022/12/31 11:00:50;;;;;;;19.10;3.35;;;;;;;;;;5111811;28;20048;-72
2022/12/31 11:03:16;;;;;;;21.25;3.85;;;;;;;;;;5089583;28;20071;-67
2022/12/31 11:05:43;;;;;;;21.05;3.58;;;;;;;;;;5089985;28;20483;-67
2022/12/31 11:08:29;;;;;;;30.75;4.80;;;;;;;;;;5111163;28;20491;-67
2022/12/31 11:11:17;;;;;;;23.67;4.30;;;;;;;;;;5104917;28;20047;-71
2022/12/31 11:13:50;;;;;;;29.13;4.75;;;;;;;;;;5082009;28;20074;-66
2022/12/31 11:16:23;;;;;;;20.67;3.70;;;;;;;;;;5102069;28;20452;-67
2022/12/31 11:19:12;;;;;;;25.60;4.72;;;;;;;;;;5089979;28;20082;-66
2022/12/31 11:21:49;;;;;;;19.95;3.78;;;;;;;;;;5107223;28;20050;-67
2022/12/31 11:24:31;;;;;;;18.58;3.72;;;;;;;;;;5107386;28;20051;-67
2022/12/31 11:27:04;;;;;;;27.17;5.47;;;;;;;;;;5106654;28;20491;-66
2022/12/31 11:29:48;;;;;;;20.38;3.97;;;;;;;;;;5106870;28;20062;-67
2022/12/31 11:32:26;;;;;;;17.63;4.15;;;;;;;;;;5104943;28;20122;-68
2022/12/31 11:34:53;;;;;;;23.55;3.83;;;;;;;;;;5088822;28;20044;-67
2022/12/31 11:37:43;;;;;;;15.88;3.33;;;;;;;;;;5086870;28;20043;-66
2022/12/31 11:40:19;;;;;;;20.15;4.18;;;;;;;;;;5106417;28;20722;-67
2022/12/31 11:42:59;;;;;;;21.33;3.38;;;;;;;;;;5104768;28;20070;-67
2022/12/31 11:45:32;;;;;;;24.00;4.68;;;;;;;;;;5075998;28;20173;-67
2022/12/31 11:48:12;;;;;;;16.67;3.67;;;;;;;;;;5088080;28;20122;-67
2022/12/31 11:50:52;;;;;;;27.33;4.65;;;;;;;;;;5087546;28;20035;-67
2022/12/31 11:53:34;;;;;;;19.52;4.10;;;;;;;;;;5104069;28;20461;-68
2022/12/31 11:56:00;;;;;;;27.65;5.95;;;;;;;;;;5102052;28;20040;-68
2022/12/31 11:58:28;;;;;;;19.67;3.47;;;;;;;;;;5107046;28;20048;-68
2022/12/31 12:00:56;;;;;;;23.08;2.95;;;;;;;;;;5107973;28;20051;-67
2022/12/31 12:03:23;;;;;;;15.75;3.65;;;;;;;;;;5107707;28;20085;-67
2022/12/31 12:05:50;;;;;;;16.90;3.88;;;;;;;;;;5107725;28;20458;-67
2022/12/31 12:08:16;;;;;;;19.73;3.75;;;;;;;;;;5108687;28;20463;-67
2022/12/31 12:10:47;;;;;;;19.73;3.70;;;;;;;;;;5108108;28;20084;-67
2022/12/31 12:13:19;;;;;;;20.50;3.92;;;;;;;;;;5106705;28;20536;-67
2022/12/31 12:15:47;;;;;;;19.27;2.65;;;;;;;;;;5088771;28;20044;-67
2022/12/31 12:18:23;;;;;;;18.30;4.10;;;;;;;;;;5091461;28;20043;-66
2022/12/31 12:20:50;;;;;;;14.20;2.72;;;;;;;;;;5088348;28;20130;-66
2022/12/31 12:23:22;;;;;;;17.35;3.45;;;;;;;;;;5087151;28;20060;-67
2022/12/31 12:25:49;;;;;;;25.77;4.05;;;;;;;;;;5107568;28;20043;-65
2022/12/31 12:28:22;;;;;;;21.83;4.13;;;;;;;;;;5101178;28;20411;-64
2022/12/31 12:30:54;;;;;;;27.17;3.60;;;;;;;;;;5094826;28;20047;-63
2022/12/31 12:33:21;;;;;;;21.50;3.92;;;;;;;;;;5085323;28;20040;-64
2022/12/31 12:35:47;;;;;;;19.50;4.32;;;;;;;;;;5086556;28;20053;-64
2022/12/31 12:38:15;;;;;;;23.13;4.43;;;;;;;;;;5082684;28;20040;-64
2022/12/31 12:40:41;;;;;;;24.48;3.78;;;;;;;;;;5098129;28;20093;-64
2022/12/31 12:43:21;;;;;;;28.33;5.47;;;;;;;;;;5103890;28;20139;-64
2022/12/31 12:45:48;;;;;;;19.88;4.70;;;;;;;;;;5101959;28;20039;-64
2022/12/31 12:48:21;;;;;;;25.17;5.03;;;;;;;;;;5099479;28;20341;-64
2022/12/31 12:50:48;;;;;;;34.22;4.25;;;;;;;;;;5096556;28;20046;-64
2022/12/31 12:53:19;;;;;;;18.60;4.18;;;;;;;;;;5084508;28;20524;-64
2022/12/31 12:55:58;;;;;;;26.55;4.65;;;;;;;;;;5078746;28;20048;-64
2022/12/31 12:58:37;;;;;;;21.83;4.40;;;;;;;;;;5103249;28;20399;-63
2022/12/31 13:01:03;;;;;;;23.65;4.53;;;;;;;;;;5081483;28;20134;-64
2022/12/31 13:03:54;;;;;;;22.52;5.00;;;;;;;;;;5081708;28;20133;-65
2022/12/31 13:06:27;;;;;;;25.75;4.60;;;;;;;;;;5103767;28;20494;-64
2022/12/31 13:09:12;;;;;;;22.77;4.00;;;;;;;;;;5101126;28;20044;-64
2022/12/31 13:11:43;;;;;;;16.75;3.78;;;;;;;;;;5102852;28;20119;-64
2022/12/31 13:14:22;;;;;;;22.27;4.32;;;;;;;;;;5102708;28;20055;-64
2022/12/31 13:16:55;;;;;;;26.48;5.13;;;;;;;;;;5101255;28;20047;-65
2022/12/31 13:19:27;;;;;;;24.90;5.20;;;;;;;;;;5102118;28;20325;-65
2022/12/31 13:22:01;;;;;;;28.73;5.00;;;;;;;;;;5085273;28;20134;-64
2022/12/31 13:24:43;;;;;;;30.38;4.18;;;;;;;;;;5103518;28;20664;-64
2022/12/31 13:27:12;;;;;;;24.05;4.53;;;;;;;;;;5084794;28;20039;-64
2022/12/31 13:29:39;;;;;;;32.38;5.53;;;;;;;;;;5101259;28;20116;-64
2022/12/31 13:32:07;;;;;;;21.95;4.10;;;;;;;;;;5100505;28;20048;-64
2022/12/31 13:34:36;;;;;;;27.95;4.07;;;;;;;;;;5101715;28;20048;-64
2022/12/31 13:37:04;;;;;;;16.73;3.25;;;;;;;;;;5100080;28;20126;-65
2022/12/31 13:39:33;;;;;;;18.02;4.05;;;;;;;;;;5099056;28;20135;-64
2022/12/31 13:42:02;;;;;;;18.25;3.30;;;;;;;;;;5103044;28;20160;-64
2022/12/31 13:44:28;;;;;;;26.67;3.58;;;;;;;;;;5103519;28;20098;-64
2022/12/31 13:46:54;;;;;;;22.77;4.57;;;;;;;;;;5085873;28;20540;-64
2022/12/31 13:49:20;;;;;;;28.88;4.53;;;;;;;;;;5102301;28;20040;-64
2022/12/31 13:51:48;;;;;;;19.65;3.67;;;;;;;;;;5099492;28;20557;-64
2022/12/31 13:54:33;;;;;;;20.88;3.53;;;;;;;;;;5082826;28;20039;-63
2022/12/31 13:57:02;;;;;;;17.98;3.33;;;;;;;;;;5094729;28;21011;-64
2022/12/31 13:59:34;;;;;;;21.75;4.35;;;;;;;;;;5096532;28;20043;-64
2022/12/31 14:02:10;;;;;;;15.63;3.03;;;;;;;;;;5064967;28;20055;-65
2022/12/31 14:04:39;;;;;;;14.55;2.60;;;;;;;;;;5095818;28;20078;-64
2022/12/31 14:07:09;;;;;;;13.38;3.42;;;;;;;;;;5080079;28;20032;-64
2022/12/31 14:09:36;;;;;;;15.77;3.60;;;;;;;;;;5099976;28;20353;-65
2022/12/31 14:12:09;;;;;;;12.63;3.05;;;;;;;;;;5099744;28;20517;-64
2022/12/31 14:14:40;;;;;;;9.98;2.58;;;;;;;;;;5097299;28;20085;-64
2022/12/31 14:17:22;;;;;;;14.35;2.15;;;;;;;;;;5099201;28;20059;-64
2022/12/31 14:19:56;;;;;;;10.75;2.30;;;;;;;;;;5102399;28;20054;-64
2022/12/31 14:22:30;;;;;;;10.50;2.83;;;;;;;;;;5098366;28;21361;-63
2022/12/31 14:24:57;;;;;;;16.10;2.80;;;;;;;;;;5101815;28;20051;-64
2022/12/31 14:27:25;;;;;;;9.30;2.10;;;;;;;;;;5080941;28;20043;-64
2022/12/31 14:29:56;;;;;;;10.80;1.88;;;;;;;;;;5101980;28;20415;-65
2022/12/31 14:32:24;;;;;;;11.20;2.30;;;;;;;;;;5084333;28;20551;-64
2022/12/31 14:34:58;;;;;;;8.98;2.05;;;;;;;;;;5086225;28;20054;-64
2022/12/31 14:37:33;;;;;;;9.60;2.60;;;;;;;;;;5079041;28;20040;-64
2022/12/31 14:40:06;;;;;;;8.60;2.13;;;;;;;;;;5093904;28;20185;-64
2022/12/31 14:42:40;;;;;;;7.18;3.00;;;;;;;;;;5093688;28;20039;-63
2022/12/31 14:45:25;;;;;;;8.90;2.03;;;;;;;;;;5095283;28;20036;-64
2022/12/31 14:47:51;;;;;;;11.68;2.80;;;;;;;;;;5078001;28;20503;-63
2022/12/31 14:50:21;;;;;;;7.07;1.85;;;;;;;;;;5098794;28;20093;-63
2022/12/31 14:52:55;;;;;;;7.90;1.60;;;;;;;;;;5097985;28;20032;-64